Clear Lake, Iowa
Current Conditions -  °F | °C
As of 5:53 PM on Monday 22 Dec 2014 (Local Time) from KMCW Reporting Station
Haze Haze  
Wind Chill: 28°   Ceiling: 400
Heat Index: 36°   Visibility: 4mi
Dew Point: 35°   Wind: 13mph
Humidity: 97%   Direction: 110°ESE
Pressure: 29.53"   Gusts: NA
Location:  43.13°N, 93.38°W
Report Text: KMCW 222353Z AUTO 11011KT 4SM BR OVC004 02/02 A2953 RMK AO2 RAE20 SLP003 P0000 60004 T00220017 10022 20011 56001
Loading
Personal Weather Stations






























Interactive Weather Map New forecast layout! Learn more

10-Day Weather Forecast

Advertisements
Track Severe Weather on mobile